sensor_id;sensor_type;location;lat;lon;timestamp;temperature;humidity
67799;SHT30;54596;43.216;27.904;2023-03-08T00:00:58;8.92;81.90
67799;SHT30;54596;43.216;27.904;2023-03-08T00:03:23;8.83;82.20
67799;SHT30;54596;43.216;27.904;2023-03-08T00:05:49;8.84;82.02
67799;SHT30;54596;43.216;27.904;2023-03-08T00:08:16;8.80;82.17
67799;SHT30;54596;43.216;27.904;2023-03-08T00:10:42;8.76;82.46
67799;SHT30;54596;43.216;27.904;2023-03-08T00:13:08;8.68;82.69
67799;SHT30;54596;43.216;27.904;2023-03-08T00:15:35;8.71;82.52
67799;SHT30;54596;43.216;27.904;2023-03-08T00:18:02;8.64;82.50
67799;SHT30;54596;43.216;27.904;2023-03-08T00:20:27;8.61;82.48
67799;SHT30;54596;43.216;27.904;2023-03-08T00:22:53;8.61;82.34
67799;SHT30;54596;43.216;27.904;2023-03-08T00:25:18;8.59;82.41
67799;SHT30;54596;43.216;27.904;2023-03-08T00:27:43;8.56;82.53
67799;SHT30;54596;43.216;27.904;2023-03-08T00:30:10;8.54;82.42
67799;SHT30;54596;43.216;27.904;2023-03-08T00:32:36;8.52;82.31
67799;SHT30;54596;43.216;27.904;2023-03-08T00:35:01;8.51;82.36
67799;SHT30;54596;43.216;27.904;2023-03-08T00:37:27;8.52;82.20
67799;SHT30;54596;43.216;27.904;2023-03-08T00:39:53;8.51;82.25
67799;SHT30;54596;43.216;27.904;2023-03-08T00:42:22;8.49;82.37
67799;SHT30;54596;43.216;27.904;2023-03-08T00:44:47;8.48;82.25
67799;SHT30;54596;43.216;27.904;2023-03-08T00:47:14;8.49;82.20
67799;SHT30;54596;43.216;27.904;2023-03-08T00:49:39;8.47;82.56
67799;SHT30;54596;43.216;27.904;2023-03-08T00:52:05;8.47;82.48
67799;SHT30;54596;43.216;27.904;2023-03-08T00:54:31;8.41;82.50
67799;SHT30;54596;43.216;27.904;2023-03-08T00:56:57;8.40;82.60
67799;SHT30;54596;43.216;27.904;2023-03-08T00:59:22;8.40;82.56
67799;SHT30;54596;43.216;27.904;2023-03-08T01:01:48;8.38;82.47
67799;SHT30;54596;43.216;27.904;2023-03-08T01:04:13;8.31;82.53
67799;SHT30;54596;43.216;27.904;2023-03-08T01:06:39;8.31;82.50
67799;SHT30;54596;43.216;27.904;2023-03-08T01:09:05;8.23;82.74
67799;SHT30;54596;43.216;27.904;2023-03-08T01:11:31;8.23;82.87
67799;SHT30;54596;43.216;27.904;2023-03-08T01:13:59;8.20;82.89
67799;SHT30;54596;43.216;27.904;2023-03-08T01:16:27;8.14;83.00
67799;SHT30;54596;43.216;27.904;2023-03-08T01:18:54;8.10;83.01
67799;SHT30;54596;43.216;27.904;2023-03-08T01:21:20;8.04;83.09
67799;SHT30;54596;43.216;27.904;2023-03-08T01:23:46;8.03;83.19
67799;SHT30;54596;43.216;27.904;2023-03-08T01:26:14;8.02;83.21
67799;SHT30;54596;43.216;27.904;2023-03-08T01:28:41;8.02;83.23
67799;SHT30;54596;43.216;27.904;2023-03-08T01:31:12;7.99;83.18
67799;SHT30;54596;43.216;27.904;2023-03-08T01:33:38;7.96;83.24
67799;SHT30;54596;43.216;27.904;2023-03-08T01:36:05;7.93;83.38
67799;SHT30;54596;43.216;27.904;2023-03-08T01:38:32;7.93;83.37
67799;SHT30;54596;43.216;27.904;2023-03-08T01:40:59;7.83;83.83
67799;SHT30;54596;43.216;27.904;2023-03-08T01:51:12;7.86;83.48
67799;SHT30;54596;43.216;27.904;2023-03-08T01:53:40;7.83;83.36
67799;SHT30;54596;43.216;27.904;2023-03-08T01:56:09;7.83;83.21
67799;SHT30;54596;43.216;27.904;2023-03-08T01:58:36;7.81;83.37
67799;SHT30;54596;43.216;27.904;2023-03-08T02:01:02;7.79;83.75
67799;SHT30;54596;43.216;27.904;2023-03-08T02:03:28;7.75;84.01
67799;SHT30;54596;43.216;27.904;2023-03-08T02:05:53;7.65;84.69
67799;SHT30;54596;43.216;27.904;2023-03-08T02:08:19;7.68;84.48
67799;SHT30;54596;43.216;27.904;2023-03-08T02:10:44;7.72;84.28
67799;SHT30;54596;43.216;27.904;2023-03-08T02:13:11;7.74;84.14
67799;SHT30;54596;43.216;27.904;2023-03-08T02:15:37;7.75;84.00
67799;SHT30;54596;43.216;27.904;2023-03-08T02:18:02;7.75;83.97
67799;SHT30;54596;43.216;27.904;2023-03-08T02:20:31;7.74;83.73
67799;SHT30;54596;43.216;27.904;2023-03-08T02:23:08;7.74;83.38
67799;SHT30;54596;43.216;27.904;2023-03-08T02:25:34;7.72;83.24
67799;SHT30;54596;43.216;27.904;2023-03-08T02:28:00;7.74;83.16
67799;SHT30;54596;43.216;27.904;2023-03-08T02:30:30;7.74;83.25
67799;SHT30;54596;43.216;27.904;2023-03-08T02:32:56;7.74;83.74
67799;SHT30;54596;43.216;27.904;2023-03-08T02:35:21;7.69;83.98
67799;SHT30;54596;43.216;27.904;2023-03-08T02:37:47;7.71;83.63
67799;SHT30;54596;43.216;27.904;2023-03-08T02:40:13;7.72;83.48
67799;SHT30;54596;43.216;27.904;2023-03-08T02:42:38;7.68;83.72
67799;SHT30;54596;43.216;27.904;2023-03-08T02:45:04;7.64;83.99
67799;SHT30;54596;43.216;27.904;2023-03-08T02:47:30;7.65;83.66
67799;SHT30;54596;43.216;27.904;2023-03-08T02:49:55;7.65;83.70
67799;SHT30;54596;43.216;27.904;2023-03-08T02:52:21;7.65;83.99
67799;SHT30;54596;43.216;27.904;2023-03-08T02:54:46;7.62;83.97
67799;SHT30;54596;43.216;27.904;2023-03-08T02:57:12;7.61;83.90
67799;SHT30;54596;43.216;27.904;2023-03-08T02:59:37;7.58;83.89
67799;SHT30;54596;43.216;27.904;2023-03-08T03:02:03;7.58;83.98
67799;SHT30;54596;43.216;27.904;2023-03-08T03:04:29;7.57;83.99
67799;SHT30;54596;43.216;27.904;2023-03-08T03:06:56;7.51;83.99
67799;SHT30;54596;43.216;27.904;2023-03-08T03:09:21;7.51;83.88
67799;SHT30;54596;43.216;27.904;2023-03-08T03:11:47;7.46;84.23
67799;SHT30;54596;43.216;27.904;2023-03-08T03:14:12;7.47;84.19
67799;SHT30;54596;43.216;27.904;2023-03-08T03:16:38;7.40;84.27
67799;SHT30;54596;43.216;27.904;2023-03-08T03:19:03;7.37;84.57
67799;SHT30;54596;43.216;27.904;2023-03-08T03:21:29;7.35;84.57
67799;SHT30;54596;43.216;27.904;2023-03-08T03:23:55;7.30;84.92
67799;SHT30;54596;43.216;27.904;2023-03-08T03:26:22;7.27;84.70
67799;SHT30;54596;43.216;27.904;2023-03-08T03:28:48;7.27;84.49
67799;SHT30;54596;43.216;27.904;2023-03-08T03:31:17;7.24;84.48
67799;SHT30;54596;43.216;27.904;2023-03-08T03:33:43;7.16;84.76
67799;SHT30;54596;43.216;27.904;2023-03-08T03:36:11;7.12;85.15
67799;SHT30;54596;43.216;27.904;2023-03-08T03:38:37;7.06;85.56
67799;SHT30;54596;43.216;27.904;2023-03-08T03:41:06;7.05;85.76
67799;SHT30;54596;43.216;27.904;2023-03-08T03:43:32;7.07;85.60
67799;SHT30;54596;43.216;27.904;2023-03-08T03:45:59;7.09;85.62
67799;SHT30;54596;43.216;27.904;2023-03-08T03:48:25;7.09;85.51
67799;SHT30;54596;43.216;27.904;2023-03-08T03:51:02;7.12;85.42
67799;SHT30;54596;43.216;27.904;2023-03-08T03:53:28;7.07;85.37
67799;SHT30;54596;43.216;27.904;2023-03-08T03:55:54;7.12;85.33
67799;SHT30;54596;43.216;27.904;2023-03-08T03:58:20;7.10;85.29
67799;SHT30;54596;43.216;27.904;2023-03-08T04:00:46;7.09;85.26
67799;SHT30;54596;43.216;27.904;2023-03-08T04:03:11;7.05;85.64
67799;SHT30;54596;43.216;27.904;2023-03-08T04:05:37;7.10;85.56
67799;SHT30;54596;43.216;27.904;2023-03-08T04:08:06;7.12;85.40
67799;SHT30;54596;43.216;27.904;2023-03-08T04:10:31;7.10;85.22
67799;SHT30;54596;43.216;27.904;2023-03-08T04:12:57;7.13;85.16
67799;SHT30;54596;43.216;27.904;2023-03-08T04:15:22;7.09;85.24
67799;SHT30;54596;43.216;27.904;2023-03-08T04:17:49;7.03;85.24
67799;SHT30;54596;43.216;27.904;2023-03-08T04:20:15;7.00;85.12
67799;SHT30;54596;43.216;27.904;2023-03-08T04:22:40;6.97;85.17
67799;SHT30;54596;43.216;27.904;2023-03-08T04:25:06;7.02;85.06
67799;SHT30;54596;43.216;27.904;2023-03-08T04:27:32;7.00;85.06
67799;SHT30;54596;43.216;27.904;2023-03-08T04:29:57;6.96;85.09
67799;SHT30;54596;43.216;27.904;2023-03-08T04:32:23;6.86;85.09
67799;SHT30;54596;43.216;27.904;2023-03-08T04:34:48;6.84;85.35
67799;SHT30;54596;43.216;27.904;2023-03-08T04:37:13;6.86;85.23
67799;SHT30;54596;43.216;27.904;2023-03-08T04:39:39;6.86;85.36
67799;SHT30;54596;43.216;27.904;2023-03-08T04:42:05;6.93;84.95
67799;SHT30;54596;43.216;27.904;2023-03-08T04:44:30;6.99;84.96
67799;SHT30;54596;43.216;27.904;2023-03-08T04:46:56;6.95;85.06
67799;SHT30;54596;43.216;27.904;2023-03-08T04:49:22;7.06;84.70
67799;SHT30;54596;43.216;27.904;2023-03-08T04:51:48;7.05;84.46
67799;SHT30;54596;43.216;27.904;2023-03-08T04:54:14;7.05;84.86
67799;SHT30;54596;43.216;27.904;2023-03-08T04:56:39;7.05;84.80
67799;SHT30;54596;43.216;27.904;2023-03-08T04:59:05;7.03;84.86
67799;SHT30;54596;43.216;27.904;2023-03-08T05:01:30;6.99;85.22
67799;SHT30;54596;43.216;27.904;2023-03-08T05:03:58;6.91;85.17
67799;SHT30;54596;43.216;27.904;2023-03-08T05:06:25;6.97;84.97
67799;SHT30;54596;43.216;27.904;2023-03-08T05:08:53;7.00;84.48
67799;SHT30;54596;43.216;27.904;2023-03-08T05:11:25;6.97;84.48
67799;SHT30;54596;43.216;27.904;2023-03-08T05:13:52;6.93;84.42
67799;SHT30;54596;43.216;27.904;2023-03-08T05:16:18;6.99;84.33
67799;SHT30;54596;43.216;27.904;2023-03-08T05:18:44;6.96;84.64
67799;SHT30;54596;43.216;27.904;2023-03-08T05:21:12;6.99;84.55
67799;SHT30;54596;43.216;27.904;2023-03-08T05:23:39;7.03;84.62
67799;SHT30;54596;43.216;27.904;2023-03-08T05:26:05;7.10;84.79
67799;SHT30;54596;43.216;27.904;2023-03-08T05:28:33;7.13;84.48
67799;SHT30;54596;43.216;27.904;2023-03-08T05:31:03;7.22;84.19
67799;SHT30;54596;43.216;27.904;2023-03-08T05:33:29;7.24;84.38
67799;SHT30;54596;43.216;27.904;2023-03-08T05:35:55;7.30;84.44
67799;SHT30;54596;43.216;27.904;2023-03-08T05:38:21;7.38;84.04
67799;SHT30;54596;43.216;27.904;2023-03-08T05:40:47;7.37;84.19
67799;SHT30;54596;43.216;27.904;2023-03-08T05:43:12;7.47;83.84
67799;SHT30;54596;43.216;27.904;2023-03-08T05:45:38;7.57;83.44
67799;SHT30;54596;43.216;27.904;2023-03-08T05:48:03;7.65;83.54
67799;SHT30;54596;43.216;27.904;2023-03-08T05:50:30;7.75;83.56
67799;SHT30;54596;43.216;27.904;2023-03-08T05:52:55;7.87;83.41
67799;SHT30;54596;43.216;27.904;2023-03-08T05:55:23;8.02;83.30
67799;SHT30;54596;43.216;27.904;2023-03-08T05:57:48;8.23;82.97
67799;SHT30;54596;43.216;27.904;2023-03-08T06:00:14;8.54;82.09
67799;SHT30;54596;43.216;27.904;2023-03-08T06:02:40;9.06;81.49
67799;SHT30;54596;43.216;27.904;2023-03-08T06:05:06;11.08;76.02
67799;SHT30;54596;43.216;27.904;2023-03-08T06:07:32;12.55;71.19
67799;SHT30;54596;43.216;27.904;2023-03-08T06:09:57;13.70;68.51
67799;SHT30;54596;43.216;27.904;2023-03-08T06:12:23;14.53;65.69
67799;SHT30;54596;43.216;27.904;2023-03-08T06:14:48;15.81;62.76
67799;SHT30;54596;43.216;27.904;2023-03-08T06:17:14;16.89;59.15
67799;SHT30;54596;43.216;27.904;2023-03-08T06:19:41;17.80;57.12
67799;SHT30;54596;43.216;27.904;2023-03-08T06:22:08;18.34;55.16
67799;SHT30;54596;43.216;27.904;2023-03-08T06:24:35;18.81;53.98
67799;SHT30;54596;43.216;27.904;2023-03-08T06:27:01;18.89;53.29
67799;SHT30;54596;43.216;27.904;2023-03-08T06:29:32;18.98;52.97
67799;SHT30;54596;43.216;27.904;2023-03-08T06:31:58;19.57;52.05
67799;SHT30;54596;43.216;27.904;2023-03-08T06:34:24;19.27;52.58
67799;SHT30;54596;43.216;27.904;2023-03-08T06:36:51;19.83;51.60
67799;SHT30;54596;43.216;27.904;2023-03-08T06:39:17;20.60;50.30
67799;SHT30;54596;43.216;27.904;2023-03-08T06:41:42;20.51;50.27
67799;SHT30;54596;43.216;27.904;2023-03-08T06:44:08;19.89;51.40
67799;SHT30;54596;43.216;27.904;2023-03-08T06:46:34;20.22;50.63
67799;SHT30;54596;43.216;27.904;2023-03-08T06:49:01;20.44;49.75
67799;SHT30;54596;43.216;27.904;2023-03-08T06:51:28;20.40;50.05
67799;SHT30;54596;43.216;27.904;2023-03-08T06:53:53;21.44;48.54
67799;SHT30;54596;43.216;27.904;2023-03-08T06:56:19;21.85;47.53
67799;SHT30;54596;43.216;27.904;2023-03-08T06:58:44;21.89;47.42
67799;SHT30;54596;43.216;27.904;2023-03-08T07:01:13;22.26;46.91
67799;SHT30;54596;43.216;27.904;2023-03-08T07:03:38;22.58;46.63
67799;SHT30;54596;43.216;27.904;2023-03-08T07:06:07;23.19;45.77
67799;SHT30;54596;43.216;27.904;2023-03-08T07:08:34;22.98;46.15
67799;SHT30;54596;43.216;27.904;2023-03-08T07:11:01;23.12;45.94
67799;SHT30;54596;43.216;27.904;2023-03-08T07:13:27;23.24;46.32
67799;SHT30;54596;43.216;27.904;2023-03-08T07:15:56;23.85;45.53
67799;SHT30;54596;43.216;27.904;2023-03-08T07:18:21;24.43;44.15
67799;SHT30;54596;43.216;27.904;2023-03-08T07:20:51;24.89;43.65
67799;SHT30;54596;43.216;27.904;2023-03-08T07:23:17;24.47;43.73
67799;SHT30;54596;43.216;27.904;2023-03-08T07:25:43;23.17;45.56
67799;SHT30;54596;43.216;27.904;2023-03-08T07:28:08;22.45;47.01
67799;SHT30;54596;43.216;27.904;2023-03-08T07:30:34;22.61;47.20
67799;SHT30;54596;43.216;27.904;2023-03-08T07:32:59;22.47;47.17
67799;SHT30;54596;43.216;27.904;2023-03-08T07:35:25;23.02;46.18
67799;SHT30;54596;43.216;27.904;2023-03-08T07:37:51;23.31;45.70
67799;SHT30;54596;43.216;27.904;2023-03-08T07:40:17;23.96;44.43
67799;SHT30;54596;43.216;27.904;2023-03-08T07:42:43;23.79;44.68
67799;SHT30;54596;43.216;27.904;2023-03-08T07:45:13;24.14;43.92
67799;SHT30;54596;43.216;27.904;2023-03-08T07:47:39;24.47;43.55
67799;SHT30;54596;43.216;27.904;2023-03-08T07:50:06;24.89;43.10
67799;SHT30;54596;43.216;27.904;2023-03-08T07:52:32;25.54;42.49
67799;SHT30;54596;43.216;27.904;2023-03-08T07:54:57;25.75;41.49
67799;SHT30;54596;43.216;27.904;2023-03-08T07:57:23;26.20;41.18
67799;SHT30;54596;43.216;27.904;2023-03-08T07:59:49;26.44;40.64
67799;SHT30;54596;43.216;27.904;2023-03-08T08:02:15;27.23;39.48
67799;SHT30;54596;43.216;27.904;2023-03-08T08:04:41;28.31;37.75
67799;SHT30;54596;43.216;27.904;2023-03-08T08:07:11;28.83;36.78
67799;SHT30;54596;43.216;27.904;2023-03-08T08:09:37;28.83;36.92
67799;SHT30;54596;43.216;27.904;2023-03-08T08:12:04;28.98;36.59
67799;SHT30;54596;43.216;27.904;2023-03-08T08:14:29;29.19;36.17
67799;SHT30;54596;43.216;27.904;2023-03-08T08:16:55;28.75;36.70
67799;SHT30;54596;43.216;27.904;2023-03-08T08:19:21;29.21;35.56
67799;SHT30;54596;43.216;27.904;2023-03-08T08:21:46;28.83;36.14
67799;SHT30;54596;43.216;27.904;2023-03-08T08:24:12;28.92;36.41
67799;SHT30;54596;43.216;27.904;2023-03-08T08:26:38;27.97;37.38
67799;SHT30;54596;43.216;27.904;2023-03-08T08:29:03;27.79;38.01
67799;SHT30;54596;43.216;27.904;2023-03-08T08:31:29;27.18;38.93
67799;SHT30;54596;43.216;27.904;2023-03-08T08:33:56;27.33;38.44
67799;SHT30;54596;43.216;27.904;2023-03-08T08:36:22;26.21;40.20
67799;SHT30;54596;43.216;27.904;2023-03-08T08:38:48;26.57;39.51
67799;SHT30;54596;43.216;27.904;2023-03-08T08:41:16;26.78;39.12
67799;SHT30;54596;43.216;27.904;2023-03-08T08:43:42;26.30;40.01
67799;SHT30;54596;43.216;27.904;2023-03-08T08:46:08;25.48;41.48
67799;SHT30;54596;43.216;27.904;2023-03-08T08:48:35;25.27;41.32
67799;SHT30;54596;43.216;27.904;2023-03-08T08:51:06;24.19;42.64
67799;SHT30;54596;43.216;27.904;2023-03-08T08:53:32;23.46;43.82
67799;SHT30;54596;43.216;27.904;2023-03-08T08:55:58;22.67;44.71
67799;SHT30;54596;43.216;27.904;2023-03-08T08:58:24;22.26;45.12
67799;SHT30;54596;43.216;27.904;2023-03-08T09:00:50;22.03;45.57
67799;SHT30;54596;43.216;27.904;2023-03-08T09:03:16;21.99;45.69
67799;SHT30;54596;43.216;27.904;2023-03-08T09:05:43;21.98;45.39
67799;SHT30;54596;43.216;27.904;2023-03-08T09:08:09;22.08;45.50
67799;SHT30;54596;43.216;27.904;2023-03-08T09:10:37;21.68;45.62
67799;SHT30;54596;43.216;27.904;2023-03-08T09:13:03;21.09;46.13
67799;SHT30;54596;43.216;27.904;2023-03-08T09:15:29;20.81;46.25
67799;SHT30;54596;43.216;27.904;2023-03-08T09:17:55;20.74;46.46
67799;SHT30;54596;43.216;27.904;2023-03-08T09:20:21;20.52;47.15
67799;SHT30;54596;43.216;27.904;2023-03-08T09:22:46;20.37;47.43
67799;SHT30;54596;43.216;27.904;2023-03-08T09:25:13;19.95;48.21
67799;SHT30;54596;43.216;27.904;2023-03-08T09:27:40;19.88;48.73
67799;SHT30;54596;43.216;27.904;2023-03-08T09:30:08;19.92;48.45
67799;SHT30;54596;43.216;27.904;2023-03-08T09:32:34;20.02;48.69
67799;SHT30;54596;43.216;27.904;2023-03-08T09:35:00;19.70;49.18
67799;SHT30;54596;43.216;27.904;2023-03-08T09:37:26;19.64;49.40
67799;SHT30;54596;43.216;27.904;2023-03-08T09:39:51;19.29;50.02
67799;SHT30;54596;43.216;27.904;2023-03-08T09:42:26;19.13;50.38
67799;SHT30;54596;43.216;27.904;2023-03-08T09:45:05;18.84;51.10
67799;SHT30;54596;43.216;27.904;2023-03-08T09:47:41;18.88;51.19
67799;SHT30;54596;43.216;27.904;2023-03-08T09:52:46;18.72;51.69
67799;SHT30;54596;43.216;27.904;2023-03-08T09:55:30;18.74;51.77
67799;SHT30;54596;43.216;27.904;2023-03-08T09:58:04;18.65;51.62
67799;SHT30;54596;43.216;27.904;2023-03-08T10:00:36;18.50;51.77
67799;SHT30;54596;43.216;27.904;2023-03-08T10:08:57;18.54;51.70
67799;SHT30;54596;43.216;27.904;2023-03-08T10:11:51;18.47;51.47
67799;SHT30;54596;43.216;27.904;2023-03-08T10:14:29;18.53;51.09
67799;SHT30;54596;43.216;27.904;2023-03-08T10:17:00;18.57;50.64
67799;SHT30;54596;43.216;27.904;2023-03-08T10:19:47;18.64;50.40
67799;SHT30;54596;43.216;27.904;2023-03-08T10:22:29;18.72;49.88
67799;SHT30;54596;43.216;27.904;2023-03-08T10:25:13;18.68;49.34
67799;SHT30;54596;43.216;27.904;2023-03-08T10:27:41;18.65;48.93
67799;SHT30;54596;43.216;27.904;2023-03-08T10:30:15;18.72;48.80
67799;SHT30;54596;43.216;27.904;2023-03-08T10:32:46;18.69;48.96
67799;SHT30;54596;43.216;27.904;2023-03-08T10:35:13;18.78;48.96
67799;SHT30;54596;43.216;27.904;2023-03-08T10:37:39;18.79;49.12
67799;SHT30;54596;43.216;27.904;2023-03-08T10:40:17;18.79;49.33
67799;SHT30;54596;43.216;27.904;2023-03-08T10:42:53;18.84;48.83
67799;SHT30;54596;43.216;27.904;2023-03-08T10:45:21;18.89;48.84
67799;SHT30;54596;43.216;27.904;2023-03-08T10:48:02;18.88;48.11
67799;SHT30;54596;43.216;27.904;2023-03-08T10:50:34;18.85;47.80
67799;SHT30;54596;43.216;27.904;2023-03-08T10:53:09;18.87;47.25
67799;SHT30;54596;43.216;27.904;2023-03-08T10:55:53;18.79;47.07
67799;SHT30;54596;43.216;27.904;2023-03-08T10:58:36;18.81;47.02
67799;SHT30;54596;43.216;27.904;2023-03-08T11:01:28;18.87;46.98
67799;SHT30;54596;43.216;27.904;2023-03-08T11:03:59;18.84;46.83
67799;SHT30;54596;43.216;27.904;2023-03-08T11:06:25;18.84;46.85
67799;SHT30;54596;43.216;27.904;2023-03-08T11:08:59;18.85;46.15
67799;SHT30;54596;43.216;27.904;2023-03-08T11:11:25;18.87;45.70
67799;SHT30;54596;43.216;27.904;2023-03-08T11:13:52;18.96;45.62
67799;SHT30;54596;43.216;27.904;2023-03-08T11:27:33;19.15;45.52
67799;SHT30;54596;43.216;27.904;2023-03-08T11:35:32;19.47;44.94
67799;SHT30;54596;43.216;27.904;2023-03-08T11:41:58;19.50;43.50
67799;SHT30;54596;43.216;27.904;2023-03-08T11:49:37;19.57;42.92
67799;SHT30;54596;43.216;27.904;2023-03-08T11:55:51;19.67;42.63
67799;SHT30;54596;43.216;27.904;2023-03-08T12:00:54;19.67;42.47
67799;SHT30;54596;43.216;27.904;2023-03-08T12:03:29;19.63;42.65
67799;SHT30;54596;43.216;27.904;2023-03-08T12:05:59;19.71;42.66
67799;SHT30;54596;43.216;27.904;2023-03-08T12:09:05;19.77;42.58
67799;SHT30;54596;43.216;27.904;2023-03-08T12:11:39;19.82;42.94
67799;SHT30;54596;43.216;27.904;2023-03-08T12:14:21;19.83;43.28
67799;SHT30;54596;43.216;27.904;2023-03-08T12:17:16;19.79;42.69
67799;SHT30;54596;43.216;27.904;2023-03-08T12:19:44;19.77;42.04
67799;SHT30;54596;43.216;27.904;2023-03-08T12:27:59;19.78;41.63
67799;SHT30;54596;43.216;27.904;2023-03-08T12:33:11;19.78;41.44
67799;SHT30;54596;43.216;27.904;2023-03-08T12:35:58;19.75;41.58
67799;SHT30;54596;43.216;27.904;2023-03-08T12:38:44;19.67;41.83
67799;SHT30;54596;43.216;27.904;2023-03-08T12:41:25;19.72;42.19
67799;SHT30;54596;43.216;27.904;2023-03-08T12:44:20;19.83;42.22
67799;SHT30;54596;43.216;27.904;2023-03-08T12:46:49;19.81;42.09
67799;SHT30;54596;43.216;27.904;2023-03-08T12:49:20;19.82;42.04
67799;SHT30;54596;43.216;27.904;2023-03-08T12:51:59;19.81;41.54
67799;SHT30;54596;43.216;27.904;2023-03-08T12:54:27;19.74;41.66
67799;SHT30;54596;43.216;27.904;2023-03-08T12:56:54;19.75;41.61
67799;SHT30;54596;43.216;27.904;2023-03-08T13:02:23;19.82;40.62
67799;SHT30;54596;43.216;27.904;2023-03-08T13:04:48;19.88;40.42
67799;SHT30;54596;43.216;27.904;2023-03-08T13:07:49;19.89;40.52
67799;SHT30;54596;43.216;27.904;2023-03-08T13:10:22;19.95;41.03
67799;SHT30;54596;43.216;27.904;2023-03-08T13:15:30;19.92;41.81
67799;SHT30;54596;43.216;27.904;2023-03-08T13:20:24;19.86;41.75
67799;SHT30;54596;43.216;27.904;2023-03-08T13:28:07;19.74;42.72
67799;SHT30;54596;43.216;27.904;2023-03-08T13:30:42;19.63;42.82
67799;SHT30;54596;43.216;27.904;2023-03-08T13:33:30;19.58;42.79
67799;SHT30;54596;43.216;27.904;2023-03-08T13:36:04;19.63;42.68
67799;SHT30;54596;43.216;27.904;2023-03-08T13:38:33;19.63;42.32
67799;SHT30;54596;43.216;27.904;2023-03-08T13:40:59;19.68;42.06
67799;SHT30;54596;43.216;27.904;2023-03-08T13:43:27;19.70;42.06
67799;SHT30;54596;43.216;27.904;2023-03-08T13:46:02;19.72;42.06
67799;SHT30;54596;43.216;27.904;2023-03-08T13:48:30;19.72;42.50
67799;SHT30;54596;43.216;27.904;2023-03-08T13:50:57;19.74;42.50
67799;SHT30;54596;43.216;27.904;2023-03-08T13:53:26;19.72;42.88
67799;SHT30;54596;43.216;27.904;2023-03-08T13:55:55;19.82;43.01
67799;SHT30;54596;43.216;27.904;2023-03-08T13:58:30;19.74;43.02
67799;SHT30;54596;43.216;27.904;2023-03-08T14:01:10;19.68;43.18
67799;SHT30;54596;43.216;27.904;2023-03-08T14:03:37;19.64;43.62
67799;SHT30;54596;43.216;27.904;2023-03-08T14:06:21;19.58;44.05
67799;SHT30;54596;43.216;27.904;2023-03-08T14:08:47;19.53;43.95
67799;SHT30;54596;43.216;27.904;2023-03-08T14:11:27;19.57;44.49
67799;SHT30;54596;43.216;27.904;2023-03-08T14:13:54;19.43;46.58
67799;SHT30;54596;43.216;27.904;2023-03-08T14:16:31;19.29;48.15
67799;SHT30;54596;43.216;27.904;2023-03-08T14:18:59;19.15;48.66
67799;SHT30;54596;43.216;27.904;2023-03-08T14:21:32;19.02;48.96
67799;SHT30;54596;43.216;27.904;2023-03-08T14:24:02;18.99;47.92
67799;SHT30;54596;43.216;27.904;2023-03-08T14:26:38;19.13;45.91
67799;SHT30;54596;43.216;27.904;2023-03-08T14:29:28;19.12;45.22
67799;SHT30;54596;43.216;27.904;2023-03-08T14:34:41;19.05;45.04
67799;SHT30;54596;43.216;27.904;2023-03-08T14:39:40;19.03;44.79
67799;SHT30;54596;43.216;27.904;2023-03-08T14:42:22;19.03;44.93
67799;SHT30;54596;43.216;27.904;2023-03-08T14:45:37;18.81;50.44
67799;SHT30;54596;43.216;27.904;2023-03-08T14:48:21;18.26;54.31
67799;SHT30;54596;43.216;27.904;2023-03-08T14:53:29;17.69;55.47
67799;SHT30;54596;43.216;27.904;2023-03-08T14:55:55;17.47;56.34
67799;SHT30;54596;43.216;27.904;2023-03-08T14:58:26;17.27;57.22
67799;SHT30;54596;43.216;27.904;2023-03-08T15:00:54;17.23;56.27
67799;SHT30;54596;43.216;27.904;2023-03-08T15:03:21;17.25;56.45
67799;SHT30;54596;43.216;27.904;2023-03-08T15:05:47;17.27;55.42
67799;SHT30;54596;43.216;27.904;2023-03-08T15:08:15;17.32;55.34
67799;SHT30;54596;43.216;27.904;2023-03-08T15:11:00;17.27;56.60
67799;SHT30;54596;43.216;27.904;2023-03-08T15:13:25;17.30;56.43
67799;SHT30;54596;43.216;27.904;2023-03-08T15:15:51;17.20;57.32
67799;SHT30;54596;43.216;27.904;2023-03-08T15:18:16;17.05;58.45
67799;SHT30;54596;43.216;27.904;2023-03-08T15:20:46;17.07;58.45
67799;SHT30;54596;43.216;27.904;2023-03-08T15:23:29;16.98;58.67
67799;SHT30;54596;43.216;27.904;2023-03-08T15:25:56;16.94;58.94
67799;SHT30;54596;43.216;27.904;2023-03-08T15:28:22;16.88;58.88
67799;SHT30;54596;43.216;27.904;2023-03-08T15:30:49;16.88;59.16
67799;SHT30;54596;43.216;27.904;2023-03-08T15:33:17;16.87;58.80
67799;SHT30;54596;43.216;27.904;2023-03-08T15:35:43;16.80;59.17
67799;SHT30;54596;43.216;27.904;2023-03-08T15:38:13;16.75;59.20
67799;SHT30;54596;43.216;27.904;2023-03-08T15:40:40;16.71;59.50
67799;SHT30;54596;43.216;27.904;2023-03-08T15:43:06;16.61;59.71
67799;SHT30;54596;43.216;27.904;2023-03-08T15:45:31;16.61;60.96
67799;SHT30;54596;43.216;27.904;2023-03-08T15:48:01;16.63;60.02
67799;SHT30;54596;43.216;27.904;2023-03-08T15:50:30;16.60;59.46
67799;SHT30;54596;43.216;27.904;2023-03-08T15:52:56;16.61;59.24
67799;SHT30;54596;43.216;27.904;2023-03-08T15:55:23;16.57;59.13
67799;SHT30;54596;43.216;27.904;2023-03-08T15:57:50;16.53;59.12
67799;SHT30;54596;43.216;27.904;2023-03-08T16:00:17;16.52;59.68
67799;SHT30;54596;43.216;27.904;2023-03-08T16:02:43;16.40;59.42
67799;SHT30;54596;43.216;27.904;2023-03-08T16:05:10;16.39;59.51
67799;SHT30;54596;43.216;27.904;2023-03-08T16:07:36;16.39;60.07
67799;SHT30;54596;43.216;27.904;2023-03-08T16:10:04;16.30;60.13
67799;SHT30;54596;43.216;27.904;2023-03-08T16:12:29;16.26;60.83
67799;SHT30;54596;43.216;27.904;2023-03-08T16:14:55;16.21;60.87
67799;SHT30;54596;43.216;27.904;2023-03-08T16:17:22;16.13;60.80
67799;SHT30;54596;43.216;27.904;2023-03-08T16:19:47;15.93;60.90
67799;SHT30;54596;43.216;27.904;2023-03-08T16:22:13;15.80;61.21
67799;SHT30;54596;43.216;27.904;2023-03-08T16:24:38;15.74;61.66
67799;SHT30;54596;43.216;27.904;2023-03-08T16:27:04;15.73;61.75
67799;SHT30;54596;43.216;27.904;2023-03-08T16:29:31;15.76;61.26
67799;SHT30;54596;43.216;27.904;2023-03-08T16:31:56;15.76;61.24
67799;SHT30;54596;43.216;27.904;2023-03-08T16:34:26;15.77;61.36
67799;SHT30;54596;43.216;27.904;2023-03-08T16:36:53;15.76;61.19
67799;SHT30;54596;43.216;27.904;2023-03-08T16:39:18;15.71;60.76
67799;SHT30;54596;43.216;27.904;2023-03-08T16:41:44;15.71;61.48
67799;SHT30;54596;43.216;27.904;2023-03-08T16:44:27;15.67;61.64
67799;SHT30;54596;43.216;27.904;2023-03-08T16:46:54;15.61;61.34
67799;SHT30;54596;43.216;27.904;2023-03-08T16:49:20;15.60;61.63